Time;durP1;ratioP1;P1;durP2;ratioP2;P2;SDS_P1;SDS_P2;PMS_P1;PMS_P2;Temp;Humidity;BMP_temperature;BMP_pressure;BME280_temperature;BME280_humidity;BME280_pressure;Samples;Min_cycle;Max_cycle;Signal;HPM_P1;HPM_P2
2022/04/07 00:01:18;;;;;;;18.10;10.70;;;;;;;8.13;73.37;98325.56;106310;1270;140201;-72
2022/04/07 00:03:50;;;;;;;15.40;10.60;;;;;;;8.13;73.45;98325.04;106317;1270;96484;-72
2022/04/07 00:06:22;;;;;;;18.30;11.40;;;;;;;8.13;73.31;98318.44;106361;1271;111326;-73
2022/04/07 00:08:55;;;;;;;15.60;10.70;;;;;;;8.15;73.26;98316.27;106274;1270;138279;-72
2022/04/07 00:11:26;;;;;;;19.50;11.70;;;;;;;8.16;73.15;98307.55;106344;1270;108846;-72
2022/04/07 00:13:58;;;;;;;17.50;10.80;;;;;;;8.15;73.17;98303.98;106165;1270;137535;-72
2022/04/07 00:16:30;;;;;;;15.40;10.60;;;;;;;8.14;73.22;98304.91;106359;1270;96622;-73
2022/04/07 00:19:02;;;;;;;17.20;10.20;;;;;;;8.12;73.05;98303.83;106254;1271;138327;-71
2022/04/07 00:21:40;;;;;;;16.10;10.20;;;;;;;8.12;73.18;98302.44;106327;1271;107865;-72
2022/04/07 00:24:13;;;;;;;14.10;9.70;;;;;;;8.13;73.15;98297.67;106333;1271;108716;-72
2022/04/07 00:26:45;;;;;;;15.00;10.20;;;;;;;8.14;72.97;98296.06;106252;1270;138325;-72
2022/04/07 00:29:18;;;;;;;14.80;10.50;;;;;;;8.15;73.04;98288.89;106351;1270;96563;-72
2022/04/07 00:31:56;;;;;;;15.20;10.10;;;;;;;8.17;72.91;98286.94;106301;1271;138159;-71
2022/04/07 00:34:28;;;;;;;14.50;10.10;;;;;;;8.17;72.72;98282.60;106385;1271;107824;-71
2022/04/07 00:37:00;;;;;;;15.00;10.10;;;;;;;8.17;72.84;98281.88;106327;1271;109085;-71
2022/04/07 00:39:32;;;;;;;14.10;9.80;;;;;;;8.17;72.72;98277.19;106343;1271;138212;-72
2022/04/07 00:42:05;;;;;;;14.50;10.20;;;;;;;8.18;72.64;98272.31;106440;1270;96541;-71
2022/04/07 00:44:37;;;;;;;13.80;10.10;;;;;;;8.18;72.59;98273.52;107763;1270;138890;-71
2022/04/07 00:47:09;;;;;;;13.20;9.50;;;;;;;8.18;72.61;98266.79;107933;1270;107970;-71
2022/04/07 00:49:41;;;;;;;11.90;9.20;;;;;;;8.20;72.49;98265.46;107579;1270;138491;-71
2022/04/07 00:52:13;;;;;;;16.50;9.50;;;;;;;8.20;72.43;98263.52;106404;1271;96474;-72
2022/04/07 00:54:45;;;;;;;16.90;10.40;;;;;;;8.23;72.42;98260.80;106440;1271;96472;-71
2022/04/07 00:57:17;;;;;;;13.50;9.00;;;;;;;8.24;72.40;98258.98;106285;1271;138290;-70
2022/04/07 00:59:50;;;;;;;15.60;9.10;;;;;;;8.24;72.29;98260.20;106418;1270;109191;-71
2022/04/07 01:02:22;;;;;;;14.40;9.00;;;;;;;8.24;72.34;98253.82;106299;1270;138496;-71
2022/04/07 01:04:55;;;;;;;15.40;10.20;;;;;;;8.25;72.23;98253.23;106408;1271;96471;-70
2022/04/07 01:07:27;;;;;;;16.00;10.30;;;;;;;8.25;72.27;98251.13;106356;1271;138318;-71
2022/04/07 01:10:00;;;;;;;13.00;9.50;;;;;;;8.24;72.26;98254.99;106431;1271;110607;-71
2022/04/07 01:12:31;;;;;;;15.90;9.80;;;;;;;8.24;72.09;98250.52;107568;1270;108843;-70
2022/04/07 01:15:06;;;;;;;13.90;9.60;;;;;;;8.23;72.21;98239.16;106318;1271;138613;-70
2022/04/07 01:17:39;;;;;;;14.60;9.90;;;;;;;8.21;72.25;98238.40;106425;1271;96588;-71
2022/04/07 01:20:13;;;;;;;15.30;10.20;;;;;;;8.20;72.15;98238.45;106231;1271;139148;-71
2022/04/07 01:22:47;;;;;;;16.10;10.20;;;;;;;8.18;72.26;98234.38;107864;1271;110609;-70
2022/04/07 01:25:20;;;;;;;15.90;9.60;;;;;;;8.17;72.49;98233.77;107806;1269;138431;-71
2022/04/07 01:27:53;;;;;;;17.40;10.20;;;;;;;8.14;72.20;98226.81;107932;1269;107710;-71
2022/04/07 01:30:26;;;;;;;16.20;10.40;;;;;;;8.16;72.29;98227.06;107252;1270;96482;-72
2022/04/07 01:33:00;;;;;;;13.30;9.60;;;;;;;8.17;72.35;98229.98;106266;1271;137920;-72
2022/04/07 01:35:33;;;;;;;16.50;10.30;;;;;;;8.17;72.28;98228.94;106316;1270;111468;-71
2022/04/07 01:38:05;;;;;;;15.30;9.70;;;;;;;8.17;72.42;98233.41;106263;1270;138290;-70
2022/04/07 01:40:38;;;;;;;21.00;11.00;;;;;;;8.16;72.37;98229.64;107870;1270;108668;-72
2022/04/07 01:43:11;;;;;;;15.70;10.10;;;;;;;8.16;72.57;98226.20;107794;1270;161631;-71
2022/04/07 01:45:45;;;;;;;14.00;10.40;;;;;;;8.14;72.56;98222.98;107906;1271;94787;-71
2022/04/07 01:48:20;;;;;;;16.00;10.20;;;;;;;8.16;72.46;98228.64;107894;1270;111204;-70
2022/04/07 01:50:53;;;;;;;16.30;10.20;;;;;;;8.15;72.52;98219.30;107770;1270;139762;-70
2022/04/07 01:53:26;;;;;;;16.70;11.00;;;;;;;8.15;72.57;98221.21;107866;1271;107743;-71
2022/04/07 01:55:58;;;;;;;14.30;10.60;;;;;;;8.15;72.56;98221.05;106700;1271;138302;-72
2022/04/07 01:58:31;;;;;;;16.60;10.60;;;;;;;8.15;72.60;98214.30;106362;1270;97274;-71
2022/04/07 02:01:04;;;;;;;17.20;10.30;;;;;;;8.15;72.73;98213.45;106348;1271;110148;-72
2022/04/07 02:03:37;;;;;;;17.10;10.50;;;;;;;8.15;72.74;98213.27;106262;1271;139442;-72
2022/04/07 02:06:17;;;;;;;14.70;10.00;;;;;;;8.14;72.64;98212.30;106333;1269;108689;-72
2022/04/07 02:08:49;;;;;;;16.80;10.80;;;;;;;8.14;72.89;98215.59;107758;1269;138426;-72
2022/04/07 02:11:22;;;;;;;15.30;10.10;;;;;;;8.14;72.69;98209.38;107918;1270;94622;-72
2022/04/07 02:13:54;;;;;;;15.90;10.90;;;;;;;8.14;72.71;98211.25;107777;1270;138427;-72
2022/04/07 02:16:27;;;;;;;14.60;10.40;;;;;;;8.15;72.69;98199.27;107888;1270;109164;-73
2022/04/07 02:18:59;;;;;;;14.30;10.20;;;;;;;8.15;72.80;98202.17;106987;1270;108178;-72
2022/04/07 02:21:31;;;;;;;16.50;10.90;;;;;;;8.16;72.66;98201.95;106184;1271;138500;-72
2022/04/07 02:24:05;;;;;;;16.30;10.60;;;;;;;8.15;72.79;98203.55;106321;1271;96498;-72
2022/04/07 02:26:37;;;;;;;16.30;10.60;;;;;;;8.15;72.87;98196.48;106306;1271;140163;-71
2022/04/07 02:29:09;;;;;;;14.90;10.40;;;;;;;8.14;72.79;98196.17;106434;1271;108685;-72
2022/04/07 02:31:41;;;;;;;18.20;10.70;;;;;;;8.14;72.92;98195.65;106256;1269;138476;-72
2022/04/07 02:34:13;;;;;;;18.80;11.80;;;;;;;8.14;72.76;98196.39;106313;1270;96474;-72
2022/04/07 02:36:45;;;;;;;17.20;10.90;;;;;;;8.13;72.98;98189.68;106382;1271;96344;-72
2022/04/07 02:39:17;;;;;;;16.50;10.70;;;;;;;8.13;73.12;98188.45;106240;1271;138032;-73
2022/04/07 02:41:49;;;;;;;15.20;10.20;;;;;;;8.14;72.98;98183.23;106395;1271;108478;-73
2022/04/07 02:44:21;;;;;;;15.20;9.90;;;;;;;8.15;73.07;98178.13;106277;1270;138280;-71
2022/04/07 02:46:53;;;;;;;14.50;9.30;;;;;;;8.19;72.96;98170.46;106365;1271;97827;-72
2022/04/07 02:49:25;;;;;;;14.80;9.20;;;;;;;8.23;72.91;98167.66;106254;1271;138023;-72
2022/04/07 02:51:57;;;;;;;15.00;9.20;;;;;;;8.28;72.96;98167.04;106446;1268;109468;-72
2022/04/07 02:54:29;;;;;;;15.00;10.30;;;;;;;8.35;72.81;98166.48;106413;1268;109007;-72
2022/04/07 02:57:01;;;;;;;17.40;10.80;;;;;;;8.40;72.64;98162.22;106354;1268;137667;-71
2022/04/07 02:59:33;;;;;;;15.30;10.40;;;;;;;8.44;72.61;98157.66;106372;1270;97718;-72
2022/04/07 03:02:06;;;;;;;16.10;10.30;;;;;;;8.47;72.45;98157.14;106336;1268;137340;-72
2022/04/07 03:04:38;;;;;;;13.70;10.10;;;;;;;8.48;72.43;98150.88;107949;1268;108993;-72
2022/04/07 03:07:10;;;;;;;15.30;10.00;;;;;;;8.48;72.40;98151.02;107889;1269;108804;-72
2022/04/07 03:09:41;;;;;;;15.50;10.10;;;;;;;8.49;72.47;98146.31;107850;1268;138266;-72
2022/04/07 03:12:14;;;;;;;14.80;9.70;;;;;;;8.52;72.29;98146.34;107686;1268;94974;-72
2022/04/07 03:14:46;;;;;;;17.20;11.00;;;;;;;8.55;72.27;98145.42;106444;1268;137538;-72
2022/04/07 03:17:18;;;;;;;15.90;10.30;;;;;;;8.58;72.15;98146.27;107963;1267;111281;-72
2022/04/07 03:19:50;;;;;;;18.30;10.40;;;;;;;8.62;72.07;98147.14;107234;1265;137906;-72
2022/04/07 03:22:22;;;;;;;14.00;9.90;;;;;;;8.64;71.98;98148.73;106425;1268;108486;-72
2022/04/07 03:24:55;;;;;;;17.30;10.30;;;;;;;8.65;71.93;98148.33;106361;1270;96452;-72
2022/04/07 03:27:27;;;;;;;19.00;11.00;;;;;;;8.66;71.83;98150.89;106293;1268;138420;-72
2022/04/07 03:29:59;;;;;;;17.50;10.40;;;;;;;8.66;71.84;98148.59;106437;1268;109968;-71
2022/04/07 03:32:31;;;;;;;15.10;10.40;;;;;;;8.67;71.92;98142.52;106359;1268;138218;-71
2022/04/07 03:35:04;;;;;;;15.80;10.40;;;;;;;8.65;71.83;98140.17;106442;1270;108814;-72
2022/04/07 03:37:37;;;;;;;15.50;10.10;;;;;;;8.64;71.63;98139.19;107753;1268;138359;-72
2022/04/07 03:40:12;;;;;;;17.50;10.30;;;;;;;8.63;71.53;98140.16;106585;1268;97149;-71
2022/04/07 03:42:47;;;;;;;16.10;10.70;;;;;;;8.62;71.59;98137.41;107248;1268;110292;-71
2022/04/07 03:45:19;;;;;;;14.90;10.50;;;;;;;8.61;71.60;98135.37;106336;1268;138197;-72
2022/04/07 03:47:51;;;;;;;17.90;11.00;;;;;;;8.60;71.50;98136.30;107917;1268;109016;-72
2022/04/07 03:50:24;;;;;;;18.00;11.00;;;;;;;8.59;71.49;98137.07;107739;1270;138316;-72
2022/04/07 03:52:56;;;;;;;16.30;10.90;;;;;;;8.57;71.55;98137.33;107930;1266;95371;-71
2022/04/07 03:55:29;;;;;;;17.00;11.10;;;;;;;8.55;71.51;98142.85;107828;1268;139000;-72
2022/04/07 03:58:01;;;;;;;17.50;11.00;;;;;;;8.52;71.57;98141.95;107900;1268;109180;-71
2022/04/07 04:00:33;;;;;;;15.60;10.60;;;;;;;8.51;71.66;98146.73;107469;1267;109298;-71
2022/04/07 04:03:05;;;;;;;17.20;10.80;;;;;;;8.50;71.82;98152.33;106325;1268;139230;-72
2022/04/07 04:05:37;;;;;;;14.80;10.80;;;;;;;8.50;71.72;98153.89;106483;1268;96456;-72
2022/04/07 04:08:10;;;;;;;17.60;11.70;;;;;;;8.49;71.70;98153.59;106257;1270;138113;-71
2022/04/07 04:10:42;;;;;;;17.80;11.70;;;;;;;8.46;71.94;98149.05;107930;1267;109030;-72
2022/04/07 04:13:13;;;;;;;16.20;11.20;;;;;;;8.44;71.91;98151.25;107861;1269;108539;-73
2022/04/07 04:15:46;;;;;;;18.10;11.90;;;;;;;8.43;71.77;98152.17;107269;1268;137958;-73
2022/04/07 04:18:18;;;;;;;16.50;10.50;;;;;;;8.41;71.85;98149.69;106493;1268;96490;-72
2022/04/07 04:20:50;;;;;;;17.50;10.70;;;;;;;8.40;71.83;98152.84;106257;1270;138625;-72
2022/04/07 04:23:22;;;;;;;18.50;11.10;;;;;;;8.40;71.87;98152.65;106390;1268;107530;-71
2022/04/07 04:25:54;;;;;;;18.40;11.50;;;;;;;8.40;71.87;98157.36;106242;1270;138720;-71
2022/04/07 04:28:26;;;;;;;17.00;10.60;;;;;;;8.40;71.78;98160.80;106407;1268;96573;-72
2022/04/07 04:30:58;;;;;;;17.70;11.60;;;;;;;8.42;71.70;98163.98;106454;1268;96558;-72
2022/04/07 04:33:30;;;;;;;18.50;11.80;;;;;;;8.42;71.73;98163.45;106326;1269;139889;-71
2022/04/07 04:36:03;;;;;;;19.30;12.60;;;;;;;8.44;71.74;98159.57;106471;1268;110027;-72
2022/04/07 04:38:35;;;;;;;20.90;12.30;;;;;;;8.47;71.66;98162.02;106285;1270;138165;-72
2022/04/07 04:41:07;;;;;;;20.10;12.40;;;;;;;8.50;71.53;98163.23;106456;1268;96461;-72
2022/04/07 04:43:39;;;;;;;17.60;11.80;;;;;;;8.52;71.45;98160.55;107761;1270;138265;-73
2022/04/07 04:46:10;;;;;;;17.40;11.60;;;;;;;8.52;71.51;98159.11;107887;1269;111086;-72
2022/04/07 04:48:43;;;;;;;18.50;12.30;;;;;;;8.58;71.49;98161.03;107930;1268;107685;-72
2022/04/07 04:51:15;;;;;;;17.80;12.00;;;;;;;8.67;71.44;98161.39;107806;1268;138814;-72
2022/04/07 04:53:47;;;;;;;18.50;11.50;;;;;;;8.82;71.23;98162.77;107917;1268;94403;-73
2022/04/07 04:56:20;;;;;;;17.20;11.20;;;;;;;9.13;70.86;98153.96;107800;1268;138133;-73
2022/04/07 04:58:52;;;;;;;17.80;11.20;;;;;;;9.33;70.05;98155.91;107947;1268;111584;-73
2022/04/07 05:01:23;;;;;;;16.30;11.50;;;;;;;9.34;69.72;98152.55;107781;1268;138987;-72
2022/04/07 05:03:55;;;;;;;18.50;11.50;;;;;;;9.33;69.48;98156.95;106655;1270;108163;-73
2022/04/07 05:06:27;;;;;;;17.40;11.40;;;;;;;9.32;69.33;98156.98;106441;1268;96686;-73
2022/04/07 05:08:59;;;;;;;19.10;11.80;;;;;;;9.34;69.30;98156.69;106253;1270;138005;-72
2022/04/07 05:11:31;;;;;;;18.00;11.50;;;;;;;9.36;69.20;98155.40;106462;1268;111439;-73
2022/04/07 05:14:03;;;;;;;19.30;11.90;;;;;;;9.43;69.25;98155.44;106275;1268;138359;-73
2022/04/07 05:16:35;;;;;;;16.10;11.40;;;;;;;9.61;69.05;98151.25;106357;1268;107871;-73
2022/04/07 05:19:07;;;;;;;17.30;11.40;;;;;;;9.87;68.76;98150.52;106386;1268;96497;-72
2022/04/07 05:21:39;;;;;;;18.30;11.50;;;;;;;10.29;68.46;98148.89;106264;1268;138141;-73
2022/04/07 05:24:11;;;;;;;15.80;11.20;;;;;;;10.93;67.51;98147.64;106420;1268;110741;-73
2022/04/07 05:26:43;;;;;;;18.30;11.90;;;;;;;11.54;66.07;98137.70;106358;1268;138166;-73
2022/04/07 05:29:15;;;;;;;17.20;11.10;;;;;;;12.28;65.02;98135.25;106456;1268;107688;-73
2022/04/07 05:31:47;;;;;;;16.90;10.60;;;;;;;13.11;63.72;98126.83;106192;1268;137860;-72
2022/04/07 05:34:20;;;;;;;19.30;10.60;;;;;;;13.71;61.11;98120.58;106428;1270;96446;-73
2022/04/07 05:36:52;;;;;;;16.80;10.40;;;;;;;14.13;60.26;98115.34;106401;1268;110853;-72
2022/04/07 05:39:24;;;;;;;17.00;10.30;;;;;;;14.53;59.54;98116.97;106361;1268;138145;-72
2022/04/07 05:42:00;;;;;;;15.30;9.70;;;;;;;15.06;58.60;98118.30;106451;1268;107810;-74
2022/04/07 05:44:32;;;;;;;15.60;9.90;;;;;;;15.16;56.94;98123.40;106335;1268;137616;-73
2022/04/07 05:47:04;;;;;;;17.30;10.30;;;;;;;14.76;56.46;98119.77;106518;1268;96452;-74
2022/04/07 05:49:36;;;;;;;14.40;9.10;;;;;;;14.46;56.50;98118.41;107853;1268;138246;-73
2022/04/07 05:52:11;;;;;;;15.40;9.70;;;;;;;14.70;57.10;98110.69;106774;1268;108881;-73
2022/04/07 05:54:44;;;;;;;14.20;9.10;;;;;;;15.53;56.44;98104.84;106446;1268;108940;-73
2022/04/07 05:57:16;;;;;;;15.70;9.00;;;;;;;15.82;54.18;98106.02;106228;1268;137495;-74
2022/04/07 05:59:48;;;;;;;14.30;9.10;;;;;;;15.70;53.55;98096.48;106365;1268;96387;-73
2022/04/07 06:02:20;;;;;;;15.40;8.90;;;;;;;15.88;53.96;98089.20;106348;1268;137358;-73
2022/04/07 06:04:52;;;;;;;10.90;8.10;;;;;;;15.96;53.25;98091.77;106443;1268;109063;-72
2022/04/07 06:07:25;;;;;;;13.40;7.90;;;;;;;16.06;53.01;98088.64;106366;1268;137740;-71
2022/04/07 06:09:57;;;;;;;13.00;8.00;;;;;;;16.26;52.92;98088.43;107926;1267;94527;-73
2022/04/07 06:12:29;;;;;;;14.70;7.90;;;;;;;16.28;52.41;98089.81;106838;1268;96930;-74
2022/04/07 06:15:01;;;;;;;14.60;7.50;;;;;;;16.08;51.79;98094.55;106191;1268;137483;-72
2022/04/07 06:17:39;;;;;;;15.00;7.80;;;;;;;16.05;51.66;98096.47;106453;1268;107891;-71
2022/04/07 06:20:12;;;;;;;15.30;7.00;;;;;;;16.47;51.91;98094.96;106138;1270;138416;-70
2022/04/07 06:22:45;;;;;;;11.80;6.80;;;;;;;17.26;50.90;98085.89;106598;1268;138954;-79
2022/04/07 06:25:17;;;;;;;11.80;6.70;;;;;;;18.11;50.00;98078.29;106343;1270;96584;-70
2022/04/07 06:27:50;;;;;;;11.60;7.00;;;;;;;19.26;48.18;98071.52;106281;1270;137282;-71
2022/04/07 06:30:22;;;;;;;12.60;7.10;;;;;;;20.15;46.84;98065.23;106421;1270;106746;-74
2022/04/07 06:32:55;;;;;;;12.30;7.00;;;;;;;20.53;46.07;98068.09;106152;1270;137679;-72
2022/04/07 06:35:27;;;;;;;9.70;7.00;;;;;;;21.29;44.72;98064.68;106426;1269;96495;-74
2022/04/07 06:37:59;;;;;;;12.30;6.70;;;;;;;22.22;44.09;98054.73;106368;1270;96495;-74
2022/04/07 06:40:32;;;;;;;13.00;7.30;;;;;;;22.64;41.76;98055.14;106285;1271;137573;-72
2022/04/07 06:43:04;;;;;;;8.00;6.30;;;;;;;23.12;41.12;98052.55;106274;1270;108371;-72
2022/04/07 06:45:36;;;;;;;12.80;6.10;;;;;;;23.89;40.34;98048.60;106211;1270;137677;-73
2022/04/07 06:48:09;;;;;;;8.70;6.30;;;;;;;24.61;39.34;98046.55;106387;1271;96568;-76
2022/04/07 06:50:42;;;;;;;12.40;6.60;;;;;;;25.45;37.81;98048.94;107862;1270;94703;-76
2022/04/07 06:53:14;;;;;;;10.40;5.40;;;;;;;26.10;36.81;98036.89;107724;1270;137320;-78
2022/04/07 06:55:46;;;;;;;10.40;5.80;;;;;;;26.94;34.93;98036.83;106618;1270;108963;-76
2022/04/07 06:58:18;;;;;;;9.00;5.30;;;;;;;27.48;34.28;98028.06;106241;1270;138648;-75
2022/04/07 07:00:50;;;;;;;11.10;5.80;;;;;;;28.06;33.76;98020.33;106206;1270;96581;-73
2022/04/07 07:03:23;;;;;;;8.70;5.60;;;;;;;28.61;32.00;98024.02;106334;1271;137480;-73
2022/04/07 07:05:58;;;;;;;7.20;5.10;;;;;;;28.68;31.48;98035.41;105813;1270;652005;-75
2022/04/07 07:08:30;;;;;;;7.20;5.40;;;;;;;29.18;31.32;98036.79;106397;1269;109337;-75
2022/04/07 07:11:02;;;;;;;13.00;5.40;;;;;;;29.39;28.83;98033.89;106280;1270;137476;-75
2022/04/07 07:13:36;;;;;;;8.10;5.10;;;;;;;28.80;29.22;98035.59;106404;1270;96590;-74
2022/04/07 07:16:08;;;;;;;6.60;5.00;;;;;;;28.08;29.50;98033.63;106315;1270;137246;-74
2022/04/07 07:18:42;;;;;;;7.70;4.80;;;;;;;27.10;29.77;98037.83;106471;1270;111178;-74
2022/04/07 07:21:14;;;;;;;6.00;4.70;;;;;;;26.26;30.82;98038.09;106242;1270;137709;-74
2022/04/07 07:23:46;;;;;;;7.60;5.10;;;;;;;25.53;31.10;98037.32;106375;1270;108746;-73
2022/04/07 07:26:18;;;;;;;7.80;4.60;;;;;;;24.71;31.62;98041.02;106449;1271;96461;-74
2022/04/07 07:28:50;;;;;;;8.90;5.00;;;;;;;24.28;32.19;98041.06;106251;1270;137047;-74
2022/04/07 07:31:22;;;;;;;7.40;4.80;;;;;;;23.59;32.10;98034.07;106281;1271;110094;-73
2022/04/07 07:33:54;;;;;;;11.50;5.10;;;;;;;22.80;32.79;98036.64;106224;1270;137409;-75
2022/04/07 07:36:26;;;;;;;10.20;5.20;;;;;;;22.12;33.73;98034.86;106321;1271;108287;-73
2022/04/07 07:38:58;;;;;;;8.40;4.30;;;;;;;21.68;34.20;98034.20;106166;1270;137627;-73
2022/04/07 07:41:30;;;;;;;8.60;4.20;;;;;;;21.41;34.67;98039.56;106445;1270;96385;-76
2022/04/07 07:44:02;;;;;;;7.90;4.20;;;;;;;21.30;34.13;98039.58;106277;1270;111307;-75
2022/04/07 07:46:34;;;;;;;9.00;4.10;;;;;;;20.99;34.53;98039.07;106167;1270;137510;-74
2022/04/07 07:49:08;;;;;;;6.60;4.00;;;;;;;20.78;34.31;98040.17;106393;1270;107990;-75
2022/04/07 07:51:40;;;;;;;6.60;4.10;;;;;;;20.56;34.86;98035.19;106126;1270;137328;-75
2022/04/07 07:54:12;;;;;;;5.90;4.10;;;;;;;20.46;35.36;98040.08;106153;1270;97882;-74
2022/04/07 07:56:44;;;;;;;8.40;4.00;;;;;;;20.57;35.44;98041.58;106228;1270;110085;-76
2022/04/07 07:59:20;;;;;;;8.10;4.00;;;;;;;20.91;35.61;98038.92;106011;1270;137173;-75
2022/04/07 08:01:52;;;;;;;8.30;4.00;;;;;;;21.39;34.96;98037.50;106248;1270;109060;-75
2022/04/07 08:04:23;;;;;;;7.20;3.90;;;;;;;22.13;34.48;98036.08;106132;1270;138027;-74
2022/04/07 08:06:56;;;;;;;7.50;4.50;;;;;;;22.96;33.42;98038.52;106290;1270;96597;-75
2022/04/07 08:09:28;;;;;;;7.60;4.30;;;;;;;23.41;32.87;98033.69;106514;1268;137857;-75
2022/04/07 08:11:59;;;;;;;8.00;4.40;;;;;;;23.84;32.57;98034.99;106312;1270;109259;-75
2022/04/07 08:14:32;;;;;;;9.20;4.90;;;;;;;24.30;31.94;98035.02;106241;1270;109134;-75
2022/04/07 08:17:04;;;;;;;6.40;4.40;;;;;;;24.52;31.00;98036.38;106092;1270;138186;-74
2022/04/07 08:19:42;;;;;;;8.60;4.00;;;;;;;24.49;30.22;98029.14;106199;1270;96494;-74
2022/04/07 08:22:16;;;;;;;8.80;4.10;;;;;;;24.45;30.39;98030.87;106145;1270;137208;-74
2022/04/07 08:24:48;;;;;;;6.40;4.40;;;;;;;25.04;30.23;98027.86;106241;1270;108366;-74
2022/04/07 08:27:19;;;;;;;8.90;4.10;;;;;;;25.29;28.64;98030.73;106183;1270;137611;-75
2022/04/07 08:29:52;;;;;;;10.10;4.50;;;;;;;25.14;29.21;98027.98;106179;1270;96497;-76
2022/04/07 08:32:24;;;;;;;8.00;4.00;;;;;;;25.54;28.46;98026.84;106295;1269;96495;-75
2022/04/07 08:34:58;;;;;;;7.40;3.80;;;;;;;25.88;28.56;98021.63;106150;1270;138268;-75
2022/04/07 08:37:30;;;;;;;6.70;3.70;;;;;;;26.18;28.03;98019.27;106291;1270;108297;-74
2022/04/07 08:40:05;;;;;;;8.70;4.20;;;;;;;26.28;27.57;98015.11;106140;1270;141798;-76
2022/04/07 08:42:38;;;;;;;5.90;4.30;;;;;;;26.31;27.86;98014.45;107830;1270;94510;-75
2022/04/07 08:45:11;;;;;;;6.10;3.80;;;;;;;26.45;27.66;98014.74;107604;1269;137792;-76
2022/04/07 08:47:47;;;;;;;9.50;4.50;;;;;;;26.40;27.31;98013.25;106331;1270;111056;-78
2022/04/07 08:50:23;;;;;;;9.90;4.50;;;;;;;25.72;26.98;98022.22;106301;1270;108890;-76
2022/04/07 08:52:56;;;;;;;7.20;4.10;;;;;;;25.47;27.74;98011.45;106176;1270;137322;-76
2022/04/07 08:55:28;;;;;;;6.10;4.40;;;;;;;25.45;27.66;98006.35;106299;1270;96448;-76
2022/04/07 08:58:01;;;;;;;7.10;4.20;;;;;;;25.29;27.67;98002.55;106170;1270;137178;-75
2022/04/07 09:00:33;;;;;;;7.50;4.20;;;;;;;25.09;27.96;98000.58;106256;1270;111179;-76
2022/04/07 09:03:05;;;;;;;12.10;4.50;;;;;;;25.02;27.84;98009.27;106142;1270;137568;-76
2022/04/07 09:05:55;;;;;;;6.80;4.40;;;;;;;24.99;28.15;98001.83;106303;1270;107377;-74
2022/04/07 09:08:35;;;;;;;8.50;4.70;;;;;;;25.01;28.13;97999.38;106196;1270;96472;-74
2022/04/07 09:11:09;;;;;;;9.20;4.80;;;;;;;24.59;28.20;97994.79;106218;1270;137422;-74
2022/04/07 09:13:44;;;;;;;6.00;4.20;;;;;;;24.62;28.99;97988.86;106249;1270;110757;-75
2022/04/07 09:16:17;;;;;;;7.00;4.60;;;;;;;24.99;28.78;97990.09;106136;1269;137883;-74
2022/04/07 09:18:49;;;;;;;6.30;4.10;;;;;;;25.17;27.97;97982.63;106197;1270;108886;-74
2022/04/07 09:21:28;;;;;;;5.30;4.00;;;;;;;24.81;27.53;97993.02;106052;1270;137623;-75
2022/04/07 09:24:00;;;;;;;6.50;4.50;;;;;;;23.67;28.01;97980.83;106230;1270;96570;-75
2022/04/07 09:26:34;;;;;;;7.10;4.50;;;;;;;23.49;29.22;97976.82;106228;1270;111148;-75
2022/04/07 09:29:11;;;;;;;7.10;4.50;;;;;;;23.44;28.97;97981.04;106253;1270;137256;-75
2022/04/07 09:31:53;;;;;;;8.80;4.70;;;;;;;23.36;29.52;97971.80;106189;1270;108793;-74
2022/04/07 09:34:33;;;;;;;5.60;3.90;;;;;;;23.32;29.46;97965.06;107717;1269;138623;-74
2022/04/07 09:37:13;;;;;;;7.30;3.70;;;;;;;23.52;29.63;97957.95;107742;1269;94541;-75
2022/04/07 09:39:45;;;;;;;5.30;3.80;;;;;;;23.43;29.18;97959.45;106140;1270;137190;-75
2022/04/07 09:42:23;;;;;;;5.80;3.80;;;;;;;23.01;29.26;97953.05;106251;1270;109335;-76
2022/04/07 09:44:59;;;;;;;8.70;4.20;;;;;;;22.87;29.56;97957.33;106134;1270;138095;-75
2022/04/07 09:47:39;;;;;;;6.60;3.90;;;;;;;23.03;29.86;97941.45;106149;1270;96488;-72
2022/04/07 09:50:22;;;;;;;9.80;4.30;;;;;;;23.46;29.82;97934.95;107316;1270;95180;-77
2022/04/07 09:53:03;;;;;;;9.00;4.00;;;;;;;23.35;29.61;97933.45;106455;1270;137268;-75
2022/04/07 09:55:38;;;;;;;11.00;5.10;;;;;;;23.24;29.57;97924.69;106235;1270;108893;-76
2022/04/07 09:58:12;;;;;;;8.40;3.60;;;;;;;23.31;29.82;97924.36;106113;1270;137533;-73
2022/04/07 10:00:45;;;;;;;7.90;3.80;;;;;;;23.33;29.59;97923.59;106239;1270;96568;-74
2022/04/07 10:03:17;;;;;;;6.50;3.60;;;;;;;23.43;29.23;97918.44;106164;1270;137405;-75
2022/04/07 10:05:49;;;;;;;6.50;4.10;;;;;;;23.38;29.06;97917.14;106265;1270;110214;-76
2022/04/07 10:08:22;;;;;;;8.00;4.20;;;;;;;22.98;29.26;97909.05;107536;1270;108854;-80
2022/04/07 10:10:55;;;;;;;7.30;3.60;;;;;;;22.88;29.73;97914.45;107746;1269;136757;-82
2022/04/07 10:13:30;;;;;;;8.10;4.10;;;;;;;22.51;29.17;97908.48;107865;1270;94414;-85
2022/04/07 10:16:03;;;;;;;7.20;3.50;;;;;;;21.76;30.37;97903.39;107749;1270;137735;-85
2022/04/07 10:18:42;;;;;;;5.40;3.70;;;;;;;21.55;31.10;97895.73;107904;1270;110151;-85
2022/04/07 10:21:27;;;;;;;6.20;3.40;;;;;;;21.39;30.87;97887.39;107233;1270;136593;-85
2022/04/07 10:24:14;;;;;;;6.30;3.30;;;;;;;21.24;31.08;97887.83;106151;1270;108841;-84
2022/04/07 10:26:48;;;;;;;6.10;3.60;;;;;;;21.44;31.85;97873.20;107812;1270;94955;-83
2022/04/07 10:29:24;;;;;;;4.60;3.30;;;;;;;21.71;31.14;97882.97;106196;1270;137244;-84
2022/04/07 10:32:22;;;;;;;4.30;3.20;;;;;;;21.15;30.71;97881.92;106421;1270;110236;-83
2022/04/07 10:34:56;;;;;;;;;;;;;;;20.53;32.01;97871.94;107035;1270;138877;-81
2022/04/07 10:37:44;;;;;;;6.10;3.60;;;;;;;20.38;32.69;97869.70;107796;1270;107335;-83
2022/04/07 10:40:34;;;;;;;5.90;3.40;;;;;;;20.58;33.09;97866.30;107673;1270;137580;-84
2022/04/07 10:43:11;;;;;;;8.20;3.90;;;;;;;20.80;33.08;97857.06;106871;1270;96465;-84
2022/04/07 10:45:45;;;;;;;4.50;3.50;;;;;;;20.52;32.49;97867.66;107683;1270;137374;-83
2022/04/07 10:48:24;;;;;;;5.60;3.80;;;;;;;20.04;32.83;97872.55;107797;1270;108919;-83
2022/04/07 10:50:57;;;;;;;6.60;3.90;;;;;;;19.73;33.72;97872.39;107779;1268;107108;-88
2022/04/07 10:53:32;;;;;;;6.70;3.90;;;;;;;19.59;34.07;97870.18;106747;1270;137535;-87
2022/04/07 10:56:11;;;;;;;7.70;3.80;;;;;;;19.43;34.19;97862.70;107774;1270;94455;-87
2022/04/07 10:58:54;;;;;;;6.80;3.70;;;;;;;19.36;34.77;97861.92;107599;1270;137888;-86
2022/04/07 11:01:54;;;;;;;6.40;3.60;;;;;;;19.13;34.64;97865.95;106174;1270;108806;-88
2022/04/07 11:05:13;;;;;;;7.40;3.70;;;;;;;18.78;35.32;97854.61;106148;1270;138819;-87
2022/04/07 11:07:54;;;;;;;6.20;3.50;;;;;;;18.50;35.39;97860.13;106929;1270;96575;-86
2022/04/07 11:10:47;;;;;;;4.40;3.40;;;;;;;18.22;35.97;97855.97;106922;1270;137947;-88
2022/04/07 11:13:40;;;;;;;9.00;3.80;;;;;;;17.98;36.66;97848.53;106367;1270;111676;-86
2022/04/07 11:16:22;;;;;;;6.60;3.70;;;;;;;18.20;36.84;97839.48;106086;1270;137803;-86
2022/04/07 11:19:16;;;;;;;6.90;3.70;;;;;;;18.30;36.78;97830.71;107351;1270;105847;-86
2022/04/07 11:21:52;;;;;;;8.00;3.60;;;;;;;18.00;36.68;97824.60;106024;1270;138036;-85
2022/04/07 11:24:34;;;;;;;7.20;3.10;;;;;;;17.96;37.27;97821.80;107174;1270;95027;-85
2022/04/07 11:27:36;;;;;;;4.30;3.70;;;;;;;18.17;37.51;97821.29;106285;1270;110241;-85
2022/04/07 11:30:11;;;;;;;4.90;3.40;;;;;;;18.31;37.10;97816.74;106738;1270;106506;-85
2022/04/07 11:33:20;;;;;;;4.40;3.30;;;;;;;18.16;36.88;97821.02;107725;1270;108935;-84
2022/04/07 11:36:14;;;;;;;6.30;3.80;;;;;;;17.88;37.00;97821.98;106466;1270;137391;-75
2022/04/07 11:38:49;;;;;;;7.70;3.40;;;;;;;17.56;37.64;97822.50;106301;1270;96472;-77
2022/04/07 11:41:21;;;;;;;6.50;3.20;;;;;;;17.39;37.77;97830.17;107142;1270;139066;-77
2022/04/07 11:43:54;;;;;;;4.60;3.10;;;;;;;17.45;38.02;97808.47;106353;1270;107553;-75
2022/04/07 11:46:30;;;;;;;9.10;3.20;;;;;;;17.51;37.80;97815.21;107710;1270;137670;-74